sensor_id;sensor_type;location;lat;lon;timestamp;temperature;humidity
7341;DHT22;6870;50.944;6.932;2023-02-07T00:01:34;18.80;37.20
7341;DHT22;6870;50.944;6.932;2023-02-07T00:04:02;18.60;36.60
7341;DHT22;6870;50.944;6.932;2023-02-07T00:06:32;18.80;37.20
7341;DHT22;6870;50.944;6.932;2023-02-07T00:09:06;18.70;37.40
7341;DHT22;6870;50.944;6.932;2023-02-07T00:11:35;18.90;37.20
7341;DHT22;6870;50.944;6.932;2023-02-07T00:14:08;18.70;37.50
7341;DHT22;6870;50.944;6.932;2023-02-07T00:16:37;18.90;38.00
7341;DHT22;6870;50.944;6.932;2023-02-07T00:19:05;18.60;37.70
7341;DHT22;6870;50.944;6.932;2023-02-07T00:21:33;19.00;38.20
7341;DHT22;6870;50.944;6.932;2023-02-07T00:24:03;18.40;37.60
7341;DHT22;6870;50.944;6.932;2023-02-07T00:26:32;18.50;37.80
7341;DHT22;6870;50.944;6.932;2023-02-07T00:29:00;18.80;38.10
7341;DHT22;6870;50.944;6.932;2023-02-07T00:31:29;18.60;37.80
7341;DHT22;6870;50.944;6.932;2023-02-07T00:34:00;18.60;37.70
7341;DHT22;6870;50.944;6.932;2023-02-07T00:36:31;18.60;37.80
7341;DHT22;6870;50.944;6.932;2023-02-07T00:39:04;18.80;37.70
7341;DHT22;6870;50.944;6.932;2023-02-07T00:41:34;18.80;38.80
7341;DHT22;6870;50.944;6.932;2023-02-07T00:44:02;19.00;37.70
7341;DHT22;6870;50.944;6.932;2023-02-07T00:46:31;19.10;37.60
7341;DHT22;6870;50.944;6.932;2023-02-07T00:48:59;18.70;37.50
7341;DHT22;6870;50.944;6.932;2023-02-07T00:51:27;18.90;37.80
7341;DHT22;6870;50.944;6.932;2023-02-07T00:53:56;19.00;38.00
7341;DHT22;6870;50.944;6.932;2023-02-07T00:56:26;18.90;38.10
7341;DHT22;6870;50.944;6.932;2023-02-07T00:58:56;19.20;38.10
7341;DHT22;6870;50.944;6.932;2023-02-07T01:01:25;19.00;37.90
7341;DHT22;6870;50.944;6.932;2023-02-07T01:03:54;19.00;37.80
7341;DHT22;6870;50.944;6.932;2023-02-07T01:06:22;19.10;37.50
7341;DHT22;6870;50.944;6.932;2023-02-07T01:08:54;19.00;37.20
7341;DHT22;6870;50.944;6.932;2023-02-07T01:11:24;18.80;36.90
7341;DHT22;6870;50.944;6.932;2023-02-07T01:13:52;19.40;37.30
7341;DHT22;6870;50.944;6.932;2023-02-07T01:16:23;19.50;36.90
7341;DHT22;6870;50.944;6.932;2023-02-07T01:18:52;19.70;36.20
7341;DHT22;6870;50.944;6.932;2023-02-07T01:21:22;19.50;36.70
7341;DHT22;6870;50.944;6.932;2023-02-07T01:23:52;19.50;36.60
7341;DHT22;6870;50.944;6.932;2023-02-07T01:26:22;19.50;36.70
7341;DHT22;6870;50.944;6.932;2023-02-07T01:28:52;19.50;36.20
7341;DHT22;6870;50.944;6.932;2023-02-07T01:31:22;19.50;36.70
7341;DHT22;6870;50.944;6.932;2023-02-07T01:33:52;19.50;36.80
7341;DHT22;6870;50.944;6.932;2023-02-07T01:36:21;19.40;36.60
7341;DHT22;6870;50.944;6.932;2023-02-07T01:38:51;19.70;36.80
7341;DHT22;6870;50.944;6.932;2023-02-07T01:41:20;19.30;36.40
7341;DHT22;6870;50.944;6.932;2023-02-07T01:43:58;19.60;36.60
7341;DHT22;6870;50.944;6.932;2023-02-07T01:46:29;19.60;36.90
7341;DHT22;6870;50.944;6.932;2023-02-07T01:49:03;19.20;36.40
7341;DHT22;6870;50.944;6.932;2023-02-07T01:51:34;19.50;36.10
7341;DHT22;6870;50.944;6.932;2023-02-07T01:54:05;19.60;36.80
7341;DHT22;6870;50.944;6.932;2023-02-07T01:56:37;19.40;36.50
7341;DHT22;6870;50.944;6.932;2023-02-07T01:59:09;19.50;37.50
7341;DHT22;6870;50.944;6.932;2023-02-07T02:01:37;19.20;37.20
7341;DHT22;6870;50.944;6.932;2023-02-07T02:04:05;18.70;37.50
7341;DHT22;6870;50.944;6.932;2023-02-07T02:06:33;19.30;39.00
7341;DHT22;6870;50.944;6.932;2023-02-07T02:09:08;19.00;37.90
7341;DHT22;6870;50.944;6.932;2023-02-07T02:12:00;18.80;37.30
7341;DHT22;6870;50.944;6.932;2023-02-07T02:14:53;19.10;38.10
7341;DHT22;6870;50.944;6.932;2023-02-07T02:17:39;18.80;38.00
7341;DHT22;6870;50.944;6.932;2023-02-07T02:20:50;18.70;38.60
7341;DHT22;6870;50.944;6.932;2023-02-07T02:23:39;18.90;38.50
7341;DHT22;6870;50.944;6.932;2023-02-07T02:26:44;18.90;38.60
7341;DHT22;6870;50.944;6.932;2023-02-07T02:30:08;18.70;38.50
7341;DHT22;6870;50.944;6.932;2023-02-07T02:33:13;19.00;38.80
7341;DHT22;6870;50.944;6.932;2023-02-07T02:36:01;19.00;38.90
7341;DHT22;6870;50.944;6.932;2023-02-07T02:38:40;19.20;38.60
7341;DHT22;6870;50.944;6.932;2023-02-07T02:41:12;18.80;38.60
7341;DHT22;6870;50.944;6.932;2023-02-07T02:43:44;18.90;38.80
7341;DHT22;6870;50.944;6.932;2023-02-07T02:46:16;18.70;38.40
7341;DHT22;6870;50.944;6.932;2023-02-07T02:48:48;19.00;38.70
7341;DHT22;6870;50.944;6.932;2023-02-07T02:51:17;18.90;38.80
7341;DHT22;6870;50.944;6.932;2023-02-07T02:53:52;18.70;38.80
7341;DHT22;6870;50.944;6.932;2023-02-07T02:56:43;18.70;38.90
7341;DHT22;6870;50.944;6.932;2023-02-07T02:59:55;18.70;38.90
7341;DHT22;6870;50.944;6.932;2023-02-07T03:02:38;18.80;39.20
7341;DHT22;6870;50.944;6.932;2023-02-07T03:05:21;19.00;39.30
7341;DHT22;6870;50.944;6.932;2023-02-07T03:08:03;18.90;39.60
7341;DHT22;6870;50.944;6.932;2023-02-07T03:10:44;18.70;39.30
7341;DHT22;6870;50.944;6.932;2023-02-07T03:13:22;18.60;39.30
7341;DHT22;6870;50.944;6.932;2023-02-07T03:16:03;18.60;39.40
7341;DHT22;6870;50.944;6.932;2023-02-07T03:18:43;18.80;39.70
7341;DHT22;6870;50.944;6.932;2023-02-07T03:21:20;18.80;39.70
7341;DHT22;6870;50.944;6.932;2023-02-07T03:23:54;18.70;39.50
7341;DHT22;6870;50.944;6.932;2023-02-07T03:26:24;18.60;39.50
7341;DHT22;6870;50.944;6.932;2023-02-07T03:28:54;18.60;40.40
7341;DHT22;6870;50.944;6.932;2023-02-07T03:31:25;18.80;40.00
7341;DHT22;6870;50.944;6.932;2023-02-07T03:34:00;19.00;40.00
7341;DHT22;6870;50.944;6.932;2023-02-07T03:36:36;18.70;40.30
7341;DHT22;6870;50.944;6.932;2023-02-07T03:39:07;19.00;39.40
7341;DHT22;6870;50.944;6.932;2023-02-07T03:41:39;18.70;39.50
7341;DHT22;6870;50.944;6.932;2023-02-07T03:44:11;18.70;39.50
7341;DHT22;6870;50.944;6.932;2023-02-07T03:46:41;18.50;39.20
7341;DHT22;6870;50.944;6.932;2023-02-07T03:49:09;18.60;39.50
7341;DHT22;6870;50.944;6.932;2023-02-07T03:51:41;18.70;39.40
7341;DHT22;6870;50.944;6.932;2023-02-07T03:54:09;18.80;40.10
7341;DHT22;6870;50.944;6.932;2023-02-07T03:56:38;18.80;40.00
7341;DHT22;6870;50.944;6.932;2023-02-07T03:59:06;19.00;40.10
7341;DHT22;6870;50.944;6.932;2023-02-07T04:01:34;18.50;39.50
7341;DHT22;6870;50.944;6.932;2023-02-07T04:04:06;18.60;39.70
7341;DHT22;6870;50.944;6.932;2023-02-07T04:06:34;18.60;39.80
7341;DHT22;6870;50.944;6.932;2023-02-07T04:09:04;19.00;39.80
7341;DHT22;6870;50.944;6.932;2023-02-07T04:11:32;18.70;38.70
7341;DHT22;6870;50.944;6.932;2023-02-07T04:14:00;19.40;38.90
7341;DHT22;6870;50.944;6.932;2023-02-07T04:16:28;19.40;38.70
7341;DHT22;6870;50.944;6.932;2023-02-07T04:18:56;19.10;38.70
7341;DHT22;6870;50.944;6.932;2023-02-07T04:21:24;19.50;39.00
7341;DHT22;6870;50.944;6.932;2023-02-07T04:23:52;19.50;38.70
7341;DHT22;6870;50.944;6.932;2023-02-07T04:26:21;19.20;38.40
7341;DHT22;6870;50.944;6.932;2023-02-07T04:28:49;19.00;38.60
7341;DHT22;6870;50.944;6.932;2023-02-07T04:31:17;19.10;38.90
7341;DHT22;6870;50.944;6.932;2023-02-07T04:33:46;19.40;39.20
7341;DHT22;6870;50.944;6.932;2023-02-07T04:36:15;18.80;38.80
7341;DHT22;6870;50.944;6.932;2023-02-07T04:38:43;19.30;39.40
7341;DHT22;6870;50.944;6.932;2023-02-07T04:41:11;19.00;39.50
7341;DHT22;6870;50.944;6.932;2023-02-07T04:43:40;19.10;39.70
7341;DHT22;6870;50.944;6.932;2023-02-07T04:46:09;19.00;39.20
7341;DHT22;6870;50.944;6.932;2023-02-07T04:48:37;19.40;39.30
7341;DHT22;6870;50.944;6.932;2023-02-07T04:51:05;19.10;38.90
7341;DHT22;6870;50.944;6.932;2023-02-07T04:53:34;19.10;39.20
7341;DHT22;6870;50.944;6.932;2023-02-07T04:56:02;19.10;39.10
7341;DHT22;6870;50.944;6.932;2023-02-07T04:58:30;19.30;39.10
7341;DHT22;6870;50.944;6.932;2023-02-07T05:01:00;19.40;38.70
7341;DHT22;6870;50.944;6.932;2023-02-07T05:03:28;19.20;37.90
7341;DHT22;6870;50.944;6.932;2023-02-07T05:05:56;19.60;38.90
7341;DHT22;6870;50.944;6.932;2023-02-07T05:08:24;19.40;38.20
7341;DHT22;6870;50.944;6.932;2023-02-07T05:10:53;19.40;38.60
7341;DHT22;6870;50.944;6.932;2023-02-07T05:13:22;19.50;38.60
7341;DHT22;6870;50.944;6.932;2023-02-07T05:15:50;19.10;38.60
7341;DHT22;6870;50.944;6.932;2023-02-07T05:18:20;19.20;38.60
7341;DHT22;6870;50.944;6.932;2023-02-07T05:20:48;19.60;39.00
7341;DHT22;6870;50.944;6.932;2023-02-07T05:23:18;19.40;38.00
7341;DHT22;6870;50.944;6.932;2023-02-07T05:25:47;19.30;38.30
7341;DHT22;6870;50.944;6.932;2023-02-07T05:28:15;19.50;38.90
7341;DHT22;6870;50.944;6.932;2023-02-07T05:30:43;19.50;38.60
7341;DHT22;6870;50.944;6.932;2023-02-07T05:33:11;19.60;38.50
7341;DHT22;6870;50.944;6.932;2023-02-07T05:35:42;19.20;38.10
7341;DHT22;6870;50.944;6.932;2023-02-07T05:38:13;19.60;38.90
7341;DHT22;6870;50.944;6.932;2023-02-07T05:40:42;19.20;38.20
7341;DHT22;6870;50.944;6.932;2023-02-07T05:43:11;19.30;36.80
7341;DHT22;6870;50.944;6.932;2023-02-07T05:45:39;18.60;34.10
7341;DHT22;6870;50.944;6.932;2023-02-07T05:48:08;18.70;32.30
7341;DHT22;6870;50.944;6.932;2023-02-07T05:50:36;18.20;31.00
7341;DHT22;6870;50.944;6.932;2023-02-07T05:53:06;18.60;32.60
7341;DHT22;6870;50.944;6.932;2023-02-07T05:55:35;18.40;31.10
7341;DHT22;6870;50.944;6.932;2023-02-07T05:58:04;18.20;29.20
7341;DHT22;6870;50.944;6.932;2023-02-07T06:00:32;18.50;29.70
7341;DHT22;6870;50.944;6.932;2023-02-07T06:03:00;18.50;29.50
7341;DHT22;6870;50.944;6.932;2023-02-07T06:05:28;19.00;29.10
7341;DHT22;6870;50.944;6.932;2023-02-07T06:07:58;19.40;29.00
7341;DHT22;6870;50.944;6.932;2023-02-07T06:10:28;19.20;28.90
7341;DHT22;6870;50.944;6.932;2023-02-07T06:12:56;19.30;29.20
7341;DHT22;6870;50.944;6.932;2023-02-07T06:15:24;19.00;29.20
7341;DHT22;6870;50.944;6.932;2023-02-07T06:17:52;19.10;29.50
7341;DHT22;6870;50.944;6.932;2023-02-07T06:20:20;19.20;29.40
7341;DHT22;6870;50.944;6.932;2023-02-07T06:22:48;18.90;29.50
7341;DHT22;6870;50.944;6.932;2023-02-07T06:25:16;19.40;29.80
7341;DHT22;6870;50.944;6.932;2023-02-07T06:27:48;19.00;29.80
7341;DHT22;6870;50.944;6.932;2023-02-07T06:30:16;19.10;29.90
7341;DHT22;6870;50.944;6.932;2023-02-07T06:32:45;19.10;30.00
7341;DHT22;6870;50.944;6.932;2023-02-07T06:35:13;19.20;30.00
7341;DHT22;6870;50.944;6.932;2023-02-07T06:37:41;18.90;30.00
7341;DHT22;6870;50.944;6.932;2023-02-07T06:40:10;19.10;30.10
7341;DHT22;6870;50.944;6.932;2023-02-07T06:42:38;19.00;30.00
7341;DHT22;6870;50.944;6.932;2023-02-07T06:45:08;19.40;30.60
7341;DHT22;6870;50.944;6.932;2023-02-07T06:47:36;19.00;30.00
7341;DHT22;6870;50.944;6.932;2023-02-07T06:50:05;19.30;30.40
7341;DHT22;6870;50.944;6.932;2023-02-07T06:52:35;19.10;30.10
7341;DHT22;6870;50.944;6.932;2023-02-07T06:55:03;19.10;30.00
7341;DHT22;6870;50.944;6.932;2023-02-07T06:57:31;19.40;30.10
7341;DHT22;6870;50.944;6.932;2023-02-07T06:59:59;19.30;30.20
7341;DHT22;6870;50.944;6.932;2023-02-07T07:02:29;19.20;29.70
7341;DHT22;6870;50.944;6.932;2023-02-07T07:04:57;19.40;29.90
7341;DHT22;6870;50.944;6.932;2023-02-07T07:07:25;19.70;30.00
7341;DHT22;6870;50.944;6.932;2023-02-07T07:09:53;19.50;29.80
7341;DHT22;6870;50.944;6.932;2023-02-07T07:12:22;19.20;29.50
7341;DHT22;6870;50.944;6.932;2023-02-07T07:14:50;19.60;29.80
7341;DHT22;6870;50.944;6.932;2023-02-07T07:17:18;19.30;29.70
7341;DHT22;6870;50.944;6.932;2023-02-07T07:19:47;19.50;29.60
7341;DHT22;6870;50.944;6.932;2023-02-07T07:22:15;19.60;29.40
7341;DHT22;6870;50.944;6.932;2023-02-07T07:24:46;19.70;29.60
7341;DHT22;6870;50.944;6.932;2023-02-07T07:27:13;19.80;29.50
7341;DHT22;6870;50.944;6.932;2023-02-07T07:29:41;19.60;29.40
7341;DHT22;6870;50.944;6.932;2023-02-07T07:32:09;20.00;29.80
7341;DHT22;6870;50.944;6.932;2023-02-07T07:34:52;19.70;29.60
7341;DHT22;6870;50.944;6.932;2023-02-07T07:37:20;19.80;29.80
7341;DHT22;6870;50.944;6.932;2023-02-07T07:39:48;19.60;29.70
7341;DHT22;6870;50.944;6.932;2023-02-07T07:42:16;19.50;29.30
7341;DHT22;6870;50.944;6.932;2023-02-07T07:44:44;19.70;29.90
7341;DHT22;6870;50.944;6.932;2023-02-07T07:47:12;19.70;30.00
7341;DHT22;6870;50.944;6.932;2023-02-07T07:49:40;19.60;29.60
7341;DHT22;6870;50.944;6.932;2023-02-07T07:52:10;19.40;29.70
7341;DHT22;6870;50.944;6.932;2023-02-07T07:54:38;19.60;29.70
7341;DHT22;6870;50.944;6.932;2023-02-07T07:57:06;19.70;29.80
7341;DHT22;6870;50.944;6.932;2023-02-07T07:59:34;19.30;29.70
7341;DHT22;6870;50.944;6.932;2023-02-07T08:02:02;19.70;29.60
7341;DHT22;6870;50.944;6.932;2023-02-07T08:04:30;19.90;30.00
7341;DHT22;6870;50.944;6.932;2023-02-07T08:06:58;19.60;30.00
7341;DHT22;6870;50.944;6.932;2023-02-07T08:09:28;19.70;30.50
7341;DHT22;6870;50.944;6.932;2023-02-07T08:11:56;19.80;29.90
7341;DHT22;6870;50.944;6.932;2023-02-07T08:14:24;19.40;29.10
7341;DHT22;6870;50.944;6.932;2023-02-07T08:16:52;19.70;29.70
7341;DHT22;6870;50.944;6.932;2023-02-07T08:19:20;19.70;29.40
7341;DHT22;6870;50.944;6.932;2023-02-07T08:21:49;20.00;29.60
7341;DHT22;6870;50.944;6.932;2023-02-07T08:24:17;20.20;29.50
7341;DHT22;6870;50.944;6.932;2023-02-07T08:26:46;19.90;28.90
7341;DHT22;6870;50.944;6.932;2023-02-07T08:29:14;20.30;29.30
7341;DHT22;6870;50.944;6.932;2023-02-07T08:31:42;20.20;29.10
7341;DHT22;6870;50.944;6.932;2023-02-07T08:34:10;20.20;29.10
7341;DHT22;6870;50.944;6.932;2023-02-07T08:36:38;20.20;28.70
7341;DHT22;6870;50.944;6.932;2023-02-07T08:39:06;20.10;28.70
7341;DHT22;6870;50.944;6.932;2023-02-07T08:41:34;20.20;28.90
7341;DHT22;6870;50.944;6.932;2023-02-07T08:44:04;20.10;28.90
7341;DHT22;6870;50.944;6.932;2023-02-07T08:46:32;20.20;28.60
7341;DHT22;6870;50.944;6.932;2023-02-07T08:49:00;20.20;28.60
7341;DHT22;6870;50.944;6.932;2023-02-07T08:51:29;20.20;28.00
7341;DHT22;6870;50.944;6.932;2023-02-07T08:53:57;20.20;27.90
7341;DHT22;6870;50.944;6.932;2023-02-07T08:56:25;20.20;28.10
7341;DHT22;6870;50.944;6.932;2023-02-07T08:58:53;20.30;27.90
7341;DHT22;6870;50.944;6.932;2023-02-07T09:01:22;20.60;27.90
7341;DHT22;6870;50.944;6.932;2023-02-07T09:03:50;20.20;27.10
7341;DHT22;6870;50.944;6.932;2023-02-07T09:06:21;20.50;27.50
7341;DHT22;6870;50.944;6.932;2023-02-07T09:08:49;20.60;27.00
7341;DHT22;6870;50.944;6.932;2023-02-07T09:11:17;20.30;27.00
7341;DHT22;6870;50.944;6.932;2023-02-07T09:13:46;20.50;26.90
7341;DHT22;6870;50.944;6.932;2023-02-07T09:16:14;20.70;27.00
7341;DHT22;6870;50.944;6.932;2023-02-07T09:18:44;20.50;26.60
7341;DHT22;6870;50.944;6.932;2023-02-07T09:21:12;20.40;26.40
7341;DHT22;6870;50.944;6.932;2023-02-07T09:23:40;20.80;26.80
7341;DHT22;6870;50.944;6.932;2023-02-07T09:26:10;21.10;27.30
7341;DHT22;6870;50.944;6.932;2023-02-07T09:28:42;21.00;27.20
7341;DHT22;6870;50.944;6.932;2023-02-07T09:31:12;20.90;27.10
7341;DHT22;6870;50.944;6.932;2023-02-07T09:33:41;21.20;27.40
7341;DHT22;6870;50.944;6.932;2023-02-07T09:36:16;20.60;27.00
7341;DHT22;6870;50.944;6.932;2023-02-07T09:38:46;21.20;27.20
7341;DHT22;6870;50.944;6.932;2023-02-07T09:41:21;21.10;27.00
7341;DHT22;6870;50.944;6.932;2023-02-07T09:44:01;21.00;26.80
7341;DHT22;6870;50.944;6.932;2023-02-07T09:46:35;21.20;26.80
7341;DHT22;6870;50.944;6.932;2023-02-07T09:49:11;21.30;26.50
7341;DHT22;6870;50.944;6.932;2023-02-07T09:51:44;21.20;26.50
7341;DHT22;6870;50.944;6.932;2023-02-07T09:54:19;21.10;26.20
7341;DHT22;6870;50.944;6.932;2023-02-07T09:56:51;21.20;26.10
7341;DHT22;6870;50.944;6.932;2023-02-07T09:59:24;20.90;25.80
7341;DHT22;6870;50.944;6.932;2023-02-07T10:02:20;21.20;25.90
7341;DHT22;6870;50.944;6.932;2023-02-07T10:04:56;21.20;25.80
7341;DHT22;6870;50.944;6.932;2023-02-07T10:07:27;21.20;25.30
7341;DHT22;6870;50.944;6.932;2023-02-07T10:09:56;21.30;25.50
7341;DHT22;6870;50.944;6.932;2023-02-07T10:12:43;21.20;25.30
7341;DHT22;6870;50.944;6.932;2023-02-07T10:15:37;21.10;25.00
7341;DHT22;6870;50.944;6.932;2023-02-07T10:18:27;21.50;25.30
7341;DHT22;6870;50.944;6.932;2023-02-07T10:21:07;21.10;24.90
7341;DHT22;6870;50.944;6.932;2023-02-07T10:23:50;21.20;24.60
7341;DHT22;6870;50.944;6.932;2023-02-07T10:26:32;21.20;24.60
7341;DHT22;6870;50.944;6.932;2023-02-07T10:32:20;21.40;24.30
7341;DHT22;6870;50.944;6.932;2023-02-07T10:34:54;21.30;24.00
7341;DHT22;6870;50.944;6.932;2023-02-07T10:37:27;21.30;24.00
7341;DHT22;6870;50.944;6.932;2023-02-07T10:40:00;21.50;24.20
7341;DHT22;6870;50.944;6.932;2023-02-07T10:42:35;21.50;24.10
7341;DHT22;6870;50.944;6.932;2023-02-07T10:45:04;21.40;23.90
7341;DHT22;6870;50.944;6.932;2023-02-07T10:47:37;21.50;23.20
7341;DHT22;6870;50.944;6.932;2023-02-07T10:50:10;21.60;24.10
7341;DHT22;6870;50.944;6.932;2023-02-07T10:52:54;20.80;17.10
7341;DHT22;6870;50.944;6.932;2023-02-07T10:55:36;20.20;15.80
7341;DHT22;6870;50.944;6.932;2023-02-07T10:58:13;19.60;11.80
7341;DHT22;6870;50.944;6.932;2023-02-07T11:00:50;18.60;11.10
7341;DHT22;6870;50.944;6.932;2023-02-07T11:03:21;19.00;14.00
7341;DHT22;6870;50.944;6.932;2023-02-07T11:05:53;19.70;17.80
7341;DHT22;6870;50.944;6.932;2023-02-07T11:08:26;20.50;18.20
7341;DHT22;6870;50.944;6.932;2023-02-07T11:10:57;21.30;18.30
7341;DHT22;6870;50.944;6.932;2023-02-07T11:13:28;21.60;17.60
7341;DHT22;6870;50.944;6.932;2023-02-07T11:16:00;21.80;18.20
7341;DHT22;6870;50.944;6.932;2023-02-07T11:18:42;21.70;17.90
7341;DHT22;6870;50.944;6.932;2023-02-07T11:21:22;21.70;18.50
7341;DHT22;6870;50.944;6.932;2023-02-07T11:23:56;21.70;18.70
7341;DHT22;6870;50.944;6.932;2023-02-07T11:26:26;21.70;18.90
7341;DHT22;6870;50.944;6.932;2023-02-07T11:29:03;21.80;19.10
7341;DHT22;6870;50.944;6.932;2023-02-07T11:31:35;21.90;19.50
7341;DHT22;6870;50.944;6.932;2023-02-07T11:34:09;22.00;19.50
7341;DHT22;6870;50.944;6.932;2023-02-07T11:36:47;22.00;19.80
7341;DHT22;6870;50.944;6.932;2023-02-07T11:39:18;22.10;19.50
7341;DHT22;6870;50.944;6.932;2023-02-07T11:41:53;22.20;19.50
7341;DHT22;6870;50.944;6.932;2023-02-07T11:44:27;22.20;19.10
7341;DHT22;6870;50.944;6.932;2023-02-07T11:46:58;22.40;19.30
7341;DHT22;6870;50.944;6.932;2023-02-07T11:49:40;22.60;19.40
7341;DHT22;6870;50.944;6.932;2023-02-07T11:52:10;22.00;18.90
7341;DHT22;6870;50.944;6.932;2023-02-07T11:54:45;22.30;19.00
7341;DHT22;6870;50.944;6.932;2023-02-07T11:57:17;22.20;19.20
7341;DHT22;6870;50.944;6.932;2023-02-07T11:59:49;22.40;18.90
7341;DHT22;6870;50.944;6.932;2023-02-07T12:02:22;22.20;19.10
7341;DHT22;6870;50.944;6.932;2023-02-07T12:04:52;22.50;19.40
7341;DHT22;6870;50.944;6.932;2023-02-07T12:07:26;22.40;19.30
7341;DHT22;6870;50.944;6.932;2023-02-07T12:10:01;22.30;19.10
7341;DHT22;6870;50.944;6.932;2023-02-07T12:12:37;22.00;18.80
7341;DHT22;6870;50.944;6.932;2023-02-07T12:15:12;22.30;19.10
7341;DHT22;6870;50.944;6.932;2023-02-07T12:17:48;22.40;18.70
7341;DHT22;6870;50.944;6.932;2023-02-07T12:20:24;22.20;19.00
7341;DHT22;6870;50.944;6.932;2023-02-07T12:22:57;22.00;18.50
7341;DHT22;6870;50.944;6.932;2023-02-07T12:25:54;22.50;19.00
7341;DHT22;6870;50.944;6.932;2023-02-07T12:28:26;22.50;19.10
7341;DHT22;6870;50.944;6.932;2023-02-07T12:31:01;22.60;19.30
7341;DHT22;6870;50.944;6.932;2023-02-07T12:33:38;22.60;18.90
7341;DHT22;6870;50.944;6.932;2023-02-07T12:36:14;22.20;18.80
7341;DHT22;6870;50.944;6.932;2023-02-07T12:38:51;22.50;19.00
7341;DHT22;6870;50.944;6.932;2023-02-07T12:41:27;22.40;18.70
7341;DHT22;6870;50.944;6.932;2023-02-07T12:44:03;22.70;18.80
7341;DHT22;6870;50.944;6.932;2023-02-07T12:46:44;22.90;18.30
7341;DHT22;6870;50.944;6.932;2023-02-07T12:49:50;22.80;19.00
7341;DHT22;6870;50.944;6.932;2023-02-07T12:52:36;22.70;18.80
7341;DHT22;6870;50.944;6.932;2023-02-07T12:55:16;22.70;18.50
7341;DHT22;6870;50.944;6.932;2023-02-07T12:58:01;22.80;18.60
7341;DHT22;6870;50.944;6.932;2023-02-07T13:00:49;22.80;18.90
7341;DHT22;6870;50.944;6.932;2023-02-07T13:06:20;22.70;18.70
7341;DHT22;6870;50.944;6.932;2023-02-07T13:08:59;23.00;18.70
7341;DHT22;6870;50.944;6.932;2023-02-07T13:11:37;23.00;19.00
7341;DHT22;6870;50.944;6.932;2023-02-07T13:14:20;23.00;18.60
7341;DHT22;6870;50.944;6.932;2023-02-07T13:17:11;23.00;18.10
7341;DHT22;6870;50.944;6.932;2023-02-07T13:19:47;23.00;18.30
7341;DHT22;6870;50.944;6.932;2023-02-07T13:22:25;23.10;18.30
7341;DHT22;6870;50.944;6.932;2023-02-07T13:24:57;23.20;18.50
7341;DHT22;6870;50.944;6.932;2023-02-07T13:27:27;23.30;18.40
7341;DHT22;6870;50.944;6.932;2023-02-07T13:29:57;23.10;18.10
7341;DHT22;6870;50.944;6.932;2023-02-07T13:32:27;23.40;18.20
7341;DHT22;6870;50.944;6.932;2023-02-07T13:34:59;23.50;18.10
7341;DHT22;6870;50.944;6.932;2023-02-07T13:37:34;23.70;18.60
7341;DHT22;6870;50.944;6.932;2023-02-07T13:40:19;23.90;18.60
7341;DHT22;6870;50.944;6.932;2023-02-07T13:42:55;23.80;18.10
7341;DHT22;6870;50.944;6.932;2023-02-07T13:45:37;23.90;18.40
7341;DHT22;6870;50.944;6.932;2023-02-07T13:48:16;23.80;17.80
7341;DHT22;6870;50.944;6.932;2023-02-07T13:50:57;23.90;18.20
7341;DHT22;6870;50.944;6.932;2023-02-07T13:53:43;23.90;18.30
7341;DHT22;6870;50.944;6.932;2023-02-07T13:56:14;23.80;17.70
7341;DHT22;6870;50.944;6.932;2023-02-07T13:59:00;24.50;18.00
7341;DHT22;6870;50.944;6.932;2023-02-07T14:01:50;24.70;17.80
7341;DHT22;6870;50.944;6.932;2023-02-07T14:04:20;24.70;17.80
7341;DHT22;6870;50.944;6.932;2023-02-07T14:07:00;24.60;17.60
7341;DHT22;6870;50.944;6.932;2023-02-07T14:09:39;24.80;17.70
7341;DHT22;6870;50.944;6.932;2023-02-07T14:12:17;24.70;17.80
7341;DHT22;6870;50.944;6.932;2023-02-07T14:14:47;24.80;18.00
7341;DHT22;6870;50.944;6.932;2023-02-07T14:17:58;25.00;18.20
7341;DHT22;6870;50.944;6.932;2023-02-07T14:20:49;25.10;18.40
7341;DHT22;6870;50.944;6.932;2023-02-07T14:23:57;24.60;18.00
7341;DHT22;6870;50.944;6.932;2023-02-07T14:30:19;24.90;18.70
7341;DHT22;6870;50.944;6.932;2023-02-07T14:33:09;24.90;18.70
7341;DHT22;6870;50.944;6.932;2023-02-07T14:36:05;25.00;18.50
7341;DHT22;6870;50.944;6.932;2023-02-07T14:39:00;25.10;19.10
7341;DHT22;6870;50.944;6.932;2023-02-07T14:41:33;24.60;18.90
7341;DHT22;6870;50.944;6.932;2023-02-07T14:44:05;24.80;19.30
7341;DHT22;6870;50.944;6.932;2023-02-07T14:46:39;25.20;19.40
7341;DHT22;6870;50.944;6.932;2023-02-07T14:49:16;24.70;19.50
7341;DHT22;6870;50.944;6.932;2023-02-07T14:51:49;24.80;19.80
7341;DHT22;6870;50.944;6.932;2023-02-07T14:54:25;24.80;19.60
7341;DHT22;6870;50.944;6.932;2023-02-07T14:57:05;24.60;19.90
7341;DHT22;6870;50.944;6.932;2023-02-07T14:59:39;25.10;20.20
7341;DHT22;6870;50.944;6.932;2023-02-07T15:02:34;25.00;20.60
7341;DHT22;6870;50.944;6.932;2023-02-07T15:05:17;24.60;20.30
7341;DHT22;6870;50.944;6.932;2023-02-07T15:07:54;24.80;20.60
7341;DHT22;6870;50.944;6.932;2023-02-07T15:10:35;24.40;20.50
7341;DHT22;6870;50.944;6.932;2023-02-07T15:13:17;24.40;19.50
7341;DHT22;6870;50.944;6.932;2023-02-07T15:15:55;24.00;19.00
7341;DHT22;6870;50.944;6.932;2023-02-07T15:18:28;24.10;19.20
7341;DHT22;6870;50.944;6.932;2023-02-07T15:20:59;23.60;18.80
7341;DHT22;6870;50.944;6.932;2023-02-07T15:23:28;23.50;19.10
7341;DHT22;6870;50.944;6.932;2023-02-07T15:26:04;23.50;19.20
7341;DHT22;6870;50.944;6.932;2023-02-07T15:28:34;23.30;18.90
7341;DHT22;6870;50.944;6.932;2023-02-07T15:31:04;23.50;19.30
7341;DHT22;6870;50.944;6.932;2023-02-07T15:33:37;23.00;19.20
7341;DHT22;6870;50.944;6.932;2023-02-07T15:36:28;23.20;19.60
7341;DHT22;6870;50.944;6.932;2023-02-07T15:39:02;23.10;19.20
7341;DHT22;6870;50.944;6.932;2023-02-07T15:41:31;22.90;19.30
7341;DHT22;6870;50.944;6.932;2023-02-07T15:44:21;22.90;19.70
7341;DHT22;6870;50.944;6.932;2023-02-07T15:46:53;22.90;20.00
7341;DHT22;6870;50.944;6.932;2023-02-07T15:49:31;22.60;20.00
7341;DHT22;6870;50.944;6.932;2023-02-07T15:52:07;22.90;19.80
7341;DHT22;6870;50.944;6.932;2023-02-07T15:54:44;22.70;19.90
7341;DHT22;6870;50.944;6.932;2023-02-07T15:57:21;22.70;20.40
7341;DHT22;6870;50.944;6.932;2023-02-07T15:59:51;22.20;20.20
7341;DHT22;6870;50.944;6.932;2023-02-07T16:02:24;22.50;20.60
7341;DHT22;6870;50.944;6.932;2023-02-07T16:04:55;22.20;20.80
7341;DHT22;6870;50.944;6.932;2023-02-07T16:07:25;22.20;20.70
7341;DHT22;6870;50.944;6.932;2023-02-07T16:09:54;22.10;21.10
7341;DHT22;6870;50.944;6.932;2023-02-07T16:12:41;22.30;21.40
7341;DHT22;6870;50.944;6.932;2023-02-07T16:15:26;21.80;21.00
7341;DHT22;6870;50.944;6.932;2023-02-07T16:17:55;21.90;21.40
7341;DHT22;6870;50.944;6.932;2023-02-07T16:20:24;21.90;21.60
7341;DHT22;6870;50.944;6.932;2023-02-07T16:22:57;21.70;21.70
7341;DHT22;6870;50.944;6.932;2023-02-07T16:25:29;21.80;21.70
7341;DHT22;6870;50.944;6.932;2023-02-07T16:27:59;21.60;21.70
7341;DHT22;6870;50.944;6.932;2023-02-07T16:30:30;21.60;21.70
7341;DHT22;6870;50.944;6.932;2023-02-07T16:33:03;21.70;22.00
7341;DHT22;6870;50.944;6.932;2023-02-07T16:35:32;21.60;22.10
7341;DHT22;6870;50.944;6.932;2023-02-07T16:38:01;21.50;22.30
7341;DHT22;6870;50.944;6.932;2023-02-07T16:40:30;21.30;22.20
7341;DHT22;6870;50.944;6.932;2023-02-07T16:42:58;21.40;22.50
7341;DHT22;6870;50.944;6.932;2023-02-07T16:45:29;21.30;22.70
7341;DHT22;6870;50.944;6.932;2023-02-07T16:47:59;21.50;23.00
7341;DHT22;6870;50.944;6.932;2023-02-07T16:50:28;20.90;22.10
7341;DHT22;6870;50.944;6.932;2023-02-07T16:52:57;21.00;23.20